createdAt,value
2019-03-23T00:00:01.126Z,13.08
2019-03-23T00:02:28.457Z,16.10
2019-03-23T00:04:55.763Z,13.62
2019-03-23T00:07:23.052Z,13.05
2019-03-23T00:09:50.381Z,14.00
2019-03-23T00:12:17.675Z,14.10
2019-03-23T00:14:44.999Z,14.25
2019-03-23T00:17:12.291Z,14.18
2019-03-23T00:19:39.588Z,16.23
2019-03-23T00:22:06.896Z,16.80
2019-03-23T00:24:34.217Z,15.25
2019-03-23T00:27:01.537Z,14.60
2019-03-23T00:29:28.844Z,15.58
2019-03-23T00:31:56.125Z,15.32
2019-03-23T00:34:23.439Z,14.55
2019-03-23T00:36:50.736Z,14.75
2019-03-23T00:39:18.050Z,13.93
2019-03-23T00:41:45.354Z,14.93
2019-03-23T00:44:12.650Z,13.95
2019-03-23T00:46:39.946Z,14.55
2019-03-23T00:49:07.269Z,17.80
2019-03-23T00:51:34.555Z,14.68
2019-03-23T00:54:01.882Z,16.10
2019-03-23T00:56:29.184Z,16.90
2019-03-23T00:58:56.474Z,18.00
2019-03-23T01:01:23.798Z,18.70
2019-03-23T01:03:51.093Z,16.07
2019-03-23T01:06:18.408Z,17.60
2019-03-23T01:08:45.712Z,16.80
2019-03-23T01:11:13.035Z,17.70
2019-03-23T01:13:40.335Z,19.73
2019-03-23T01:16:07.650Z,17.98
2019-03-23T01:18:34.942Z,19.15
2019-03-23T01:21:02.323Z,19.60
2019-03-23T01:23:29.642Z,20.30
2019-03-23T01:25:56.971Z,20.52
2019-03-23T01:28:24.232Z,18.12
2019-03-23T01:30:51.555Z,17.82
2019-03-23T01:33:18.921Z,15.25
2019-03-23T01:35:46.206Z,19.92
2019-03-23T01:38:13.524Z,17.42
2019-03-23T01:40:40.836Z,18.23
2019-03-23T01:43:08.145Z,16.42
2019-03-23T01:45:35.448Z,16.93
2019-03-23T01:48:02.755Z,17.98
2019-03-23T01:50:30.056Z,16.57
2019-03-23T01:52:57.371Z,15.95
2019-03-23T01:55:24.661Z,16.77
2019-03-23T01:57:51.948Z,15.60
2019-03-23T02:00:19.273Z,16.48
2019-03-23T02:02:47.594Z,16.90
2019-03-23T02:05:14.988Z,16.55
2019-03-23T02:07:42.282Z,15.23
2019-03-23T02:10:10.057Z,16.17
2019-03-23T02:12:37.360Z,16.02
2019-03-23T02:15:05.833Z,17.07
2019-03-23T02:17:33.173Z,16.12
2019-03-23T02:20:00.524Z,16.02
2019-03-23T02:22:27.814Z,16.62
2019-03-23T02:24:55.118Z,13.15
2019-03-23T02:27:22.423Z,15.20
2019-03-23T02:29:49.735Z,16.57
2019-03-23T02:32:17.030Z,15.65
2019-03-23T02:34:44.351Z,15.70
2019-03-23T02:37:11.660Z,17.60
2019-03-23T02:39:38.951Z,13.62
2019-03-23T02:42:06.263Z,17.05
2019-03-23T02:44:33.554Z,14.65
2019-03-23T02:47:00.851Z,14.73
2019-03-23T02:49:28.206Z,15.55
2019-03-23T02:51:55.503Z,16.50
2019-03-23T02:54:22.797Z,15.10
2019-03-23T02:56:50.124Z,14.47
2019-03-23T02:59:17.425Z,15.18
2019-03-23T03:01:44.756Z,16.48
2019-03-23T03:04:12.057Z,17.25
2019-03-23T03:06:39.382Z,16.95
2019-03-23T03:09:06.690Z,16.62
2019-03-23T03:11:33.986Z,17.98
2019-03-23T03:14:01.310Z,21.02
2019-03-23T03:16:28.602Z,19.40
2019-03-23T03:18:55.932Z,21.73
2019-03-23T03:21:23.209Z,20.20
2019-03-23T03:23:50.543Z,20.88
2019-03-23T03:26:17.845Z,19.80
2019-03-23T03:28:45.157Z,20.45
2019-03-23T03:31:12.448Z,19.52
2019-03-23T03:33:39.733Z,18.95
2019-03-23T03:36:07.056Z,16.82
2019-03-23T03:38:34.368Z,18.10
2019-03-23T03:41:01.692Z,18.20
2019-03-23T03:43:28.962Z,17.48
2019-03-23T03:45:56.278Z,17.35
2019-03-23T03:48:23.574Z,17.25
2019-03-23T03:50:50.874Z,18.67
2019-03-23T03:53:18.186Z,18.15
2019-03-23T03:55:45.480Z,16.82
2019-03-23T03:58:12.873Z,18.62
2019-03-23T04:00:40.090Z,17.17
2019-03-23T04:03:07.411Z,19.02
2019-03-23T04:05:34.761Z,20.32
2019-03-23T04:08:10.953Z,21.12
2019-03-23T04:10:30.957Z,20.85
2019-03-23T04:12:58.282Z,21.65
2019-03-23T04:15:25.576Z,19.48
2019-03-23T04:17:52.879Z,21.82
2019-03-23T04:20:20.262Z,22.17
2019-03-23T04:22:47.586Z,22.10
2019-03-23T04:25:14.862Z,22.20
2019-03-23T04:27:42.208Z,21.33
2019-03-23T04:30:10.092Z,20.72
2019-03-23T04:32:37.382Z,20.90
2019-03-23T04:35:05.379Z,20.20
2019-03-23T04:37:32.675Z,21.20
2019-03-23T04:39:59.979Z,20.23
2019-03-23T04:42:27.292Z,20.70
2019-03-23T04:44:54.623Z,20.02
2019-03-23T04:47:21.935Z,21.65
2019-03-23T04:49:49.235Z,19.32
2019-03-23T04:52:16.554Z,19.00
2019-03-23T04:54:43.845Z,18.20
2019-03-23T04:57:11.157Z,18.35
2019-03-23T04:59:38.459Z,18.07
2019-03-23T05:02:05.784Z,17.95
2019-03-23T05:04:33.077Z,18.17
2019-03-23T05:07:00.376Z,18.65
2019-03-23T05:09:27.690Z,18.62
2019-03-23T05:11:54.981Z,16.77
2019-03-23T05:14:22.297Z,19.00
2019-03-23T05:16:49.591Z,17.50
2019-03-23T05:19:16.909Z,18.87
2019-03-23T05:21:44.210Z,20.02
2019-03-23T05:24:11.530Z,18.27
2019-03-23T05:26:38.820Z,17.42
2019-03-23T05:29:06.101Z,17.98
2019-03-23T05:31:33.455Z,19.40
2019-03-23T05:34:00.773Z,17.52
2019-03-23T05:36:28.142Z,18.07
2019-03-23T05:38:55.470Z,17.85
2019-03-23T05:41:22.770Z,18.15
2019-03-23T05:43:50.069Z,17.35
2019-03-23T05:46:17.400Z,17.85
2019-03-23T05:48:44.714Z,17.55
2019-03-23T05:51:12.020Z,17.30
2019-03-23T05:53:39.354Z,18.62
2019-03-23T05:56:06.646Z,20.30
2019-03-23T05:58:33.971Z,17.20
2019-03-23T06:01:01.266Z,16.35
2019-03-23T06:03:28.562Z,17.67
2019-03-23T06:05:55.895Z,16.87
2019-03-23T06:08:23.214Z,16.42
2019-03-23T06:10:50.543Z,17.40
2019-03-23T06:13:17.826Z,16.17
2019-03-23T06:15:45.118Z,17.77
2019-03-23T06:18:12.421Z,18.25
2019-03-23T06:20:39.758Z,21.05
2019-03-23T06:23:07.042Z,17.25
2019-03-23T06:25:34.333Z,20.12
2019-03-23T06:28:01.651Z,24.77
2019-03-23T06:30:28.951Z,18.12
2019-03-23T06:32:56.277Z,17.05
2019-03-23T06:35:23.571Z,16.90
2019-03-23T06:37:50.865Z,12.58
2019-03-23T06:40:18.196Z,12.70
2019-03-23T06:42:45.513Z,14.43
2019-03-23T06:45:12.872Z,13.98
2019-03-23T06:47:40.166Z,12.30
2019-03-23T06:50:08.457Z,13.05
2019-03-23T06:52:35.755Z,12.80
2019-03-23T06:55:04.136Z,13.20
2019-03-23T06:57:31.430Z,12.73
2019-03-23T06:59:58.753Z,14.58
2019-03-23T07:02:26.038Z,15.32
2019-03-23T07:04:53.350Z,16.87
2019-03-23T07:07:20.693Z,16.35
2019-03-23T07:09:47.986Z,17.30
2019-03-23T07:12:15.269Z,19.92
2019-03-23T07:14:42.617Z,17.73
2019-03-23T07:17:09.938Z,14.40
2019-03-23T07:19:37.254Z,14.30
2019-03-23T07:22:04.573Z,18.17
2019-03-23T07:24:31.864Z,16.97
2019-03-23T07:26:59.160Z,14.80
2019-03-23T07:29:26.482Z,16.17
2019-03-23T07:31:53.778Z,13.20
2019-03-23T07:34:21.103Z,13.83
2019-03-23T07:36:48.420Z,19.37
2019-03-23T07:39:26.474Z,13.78
2019-03-23T07:41:44.686Z,17.20
2019-03-23T07:44:11.991Z,12.78
2019-03-23T07:46:39.314Z,13.55
2019-03-23T07:49:06.607Z,18.10
2019-03-23T07:51:33.942Z,19.95
2019-03-23T07:54:02.765Z,13.60
2019-03-23T07:56:30.155Z,15.25
2019-03-23T07:58:57.468Z,14.73
2019-03-23T08:01:24.762Z,21.87
2019-03-23T08:03:52.078Z,16.70
2019-03-23T08:06:19.451Z,17.82
2019-03-23T08:08:46.766Z,14.63
2019-03-23T08:11:14.070Z,14.68
2019-03-23T08:13:41.463Z,19.55
2019-03-23T08:16:08.768Z,19.80
2019-03-23T08:18:36.064Z,15.08
2019-03-23T08:21:03.394Z,19.32
2019-03-23T08:23:30.713Z,14.28
2019-03-23T08:25:58.006Z,17.02
2019-03-23T08:28:25.326Z,15.50
2019-03-23T08:30:52.609Z,16.12
2019-03-23T08:33:19.917Z,17.17
2019-03-23T08:35:47.224Z,20.43
2019-03-23T08:38:14.563Z,22.22
2019-03-23T08:40:41.869Z,14.60
2019-03-23T08:43:09.167Z,20.52
2019-03-23T08:45:36.505Z,20.97
2019-03-23T08:48:03.793Z,23.20
2019-03-23T08:50:31.127Z,19.30
2019-03-23T08:52:58.427Z,17.87
2019-03-23T08:55:25.722Z,20.80
2019-03-23T08:57:53.038Z,24.72
2019-03-23T09:00:20.342Z,21.82
2019-03-23T09:02:47.668Z,17.17
2019-03-23T09:05:14.967Z,17.62
2019-03-23T09:07:42.285Z,21.75
2019-03-23T09:10:09.578Z,21.45
2019-03-23T09:12:36.874Z,22.37
2019-03-23T09:15:07.746Z,19.75
2019-03-23T09:17:35.045Z,18.07
2019-03-23T09:20:02.543Z,22.93
2019-03-23T09:22:29.842Z,20.97
2019-03-23T09:24:57.276Z,22.87
2019-03-23T09:27:24.564Z,29.67
2019-03-23T09:29:51.857Z,23.35
2019-03-23T09:32:19.180Z,22.27
2019-03-23T09:34:46.478Z,21.85
2019-03-23T09:37:13.784Z,18.98
2019-03-23T09:39:41.074Z,30.15
2019-03-23T09:42:08.394Z,24.20
2019-03-23T09:44:35.689Z,24.02
2019-03-23T09:47:02.984Z,24.63
2019-03-23T09:49:30.301Z,22.70
2019-03-23T09:51:57.622Z,24.70
2019-03-23T09:54:24.977Z,25.60
2019-03-23T09:56:52.302Z,21.55
2019-03-23T09:59:19.597Z,21.20
2019-03-23T10:01:46.921Z,23.62
2019-03-23T10:04:14.218Z,24.05
2019-03-23T10:06:41.522Z,29.50
2019-03-23T10:09:08.835Z,27.65
2019-03-23T10:11:36.150Z,25.97
2019-03-23T10:14:03.454Z,25.82
2019-03-23T10:16:30.776Z,28.52
2019-03-23T10:18:58.070Z,25.32
2019-03-23T10:21:25.404Z,27.17
2019-03-23T10:23:54.545Z,28.67
2019-03-23T10:26:21.637Z,24.25
2019-03-23T10:28:48.978Z,24.60
2019-03-23T10:31:16.263Z,31.05
2019-03-23T10:33:43.586Z,29.20
2019-03-23T10:36:12.293Z,30.82
2019-03-23T10:38:39.682Z,30.37
2019-03-23T10:41:07.000Z,33.20
2019-03-23T10:43:34.291Z,28.57
2019-03-23T10:46:01.619Z,32.00
2019-03-23T10:48:28.906Z,31.60
2019-03-23T10:50:56.242Z,33.53
2019-03-23T10:53:23.570Z,31.45
2019-03-23T10:55:50.837Z,29.20
2019-03-23T10:58:18.153Z,27.80
2019-03-23T11:00:45.449Z,28.27
2019-03-23T11:03:12.745Z,31.60
2019-03-23T11:05:40.065Z,30.45
2019-03-23T11:08:07.365Z,32.63
2019-03-23T11:10:41.681Z,28.27
2019-03-23T11:13:03.619Z,30.45
2019-03-23T11:15:30.909Z,32.17
2019-03-23T11:17:58.234Z,28.42
2019-03-23T11:20:25.556Z,26.45
2019-03-23T11:22:52.865Z,29.02
2019-03-23T11:25:20.164Z,33.05
2019-03-23T11:27:47.493Z,29.85
2019-03-23T11:30:14.778Z,29.10
2019-03-23T11:32:42.111Z,33.92
2019-03-23T11:35:09.461Z,30.32
2019-03-23T11:37:36.996Z,27.75
2019-03-23T11:40:05.501Z,27.85
2019-03-23T11:42:32.791Z,29.40
2019-03-23T11:45:00.150Z,31.15
2019-03-23T11:47:27.502Z,28.75
2019-03-23T11:49:54.801Z,28.47
2019-03-23T11:52:22.123Z,29.42
2019-03-23T11:54:49.457Z,28.47
2019-03-23T11:57:16.751Z,27.62
2019-03-23T11:59:44.041Z,28.95
2019-03-23T12:02:11.435Z,27.20
2019-03-23T12:04:38.774Z,28.27
2019-03-23T12:07:06.091Z,25.02
2019-03-23T12:09:33.473Z,23.55
2019-03-23T12:12:00.797Z,24.43
2019-03-23T12:14:28.107Z,26.55
2019-03-23T12:16:55.465Z,23.18
2019-03-23T12:19:22.748Z,25.25
2019-03-23T12:21:50.933Z,22.43
2019-03-23T12:24:18.249Z,24.53
2019-03-23T12:26:45.548Z,26.17
2019-03-23T12:29:12.838Z,22.40
2019-03-23T12:31:40.163Z,24.77
2019-03-23T12:34:07.478Z,25.40
2019-03-23T12:36:34.783Z,22.53
2019-03-23T12:39:02.112Z,23.63
2019-03-23T12:41:29.421Z,23.97
2019-03-23T12:43:56.734Z,24.93
2019-03-23T12:46:24.050Z,23.97
2019-03-23T12:48:51.345Z,21.30
2019-03-23T12:51:18.662Z,20.90
2019-03-23T12:53:45.959Z,19.97
2019-03-23T12:56:13.278Z,21.37
2019-03-23T12:58:40.626Z,21.73
2019-03-23T13:01:07.869Z,19.77
2019-03-23T13:03:35.180Z,23.93
2019-03-23T13:06:02.493Z,22.37
2019-03-23T13:08:29.804Z,21.43
2019-03-23T13:10:57.129Z,21.33
2019-03-23T13:13:24.422Z,24.50
2019-03-23T13:15:51.712Z,28.53
2019-03-23T13:18:26.854Z,20.70
2019-03-23T13:20:47.973Z,20.60
2019-03-23T13:23:15.305Z,32.73
2019-03-23T13:25:42.597Z,19.10
2019-03-23T13:28:10.004Z,21.97
2019-03-23T13:30:37.273Z,21.47
2019-03-23T13:33:04.598Z,21.17
2019-03-23T13:35:31.886Z,22.73
2019-03-23T13:37:59.199Z,20.53
2019-03-23T13:40:26.515Z,22.23
2019-03-23T13:42:53.818Z,21.97
2019-03-23T13:45:21.156Z,22.03
2019-03-23T13:47:48.518Z,26.60
2019-03-23T13:50:17.447Z,19.20
2019-03-23T13:52:44.768Z,21.50
2019-03-23T13:55:13.685Z,21.50
2019-03-23T13:57:41.015Z,22.93
2019-03-23T14:00:08.319Z,23.97
2019-03-23T14:02:35.619Z,24.57
2019-03-23T14:05:03.010Z,23.20
2019-03-23T14:07:30.336Z,22.17
2019-03-23T14:09:57.633Z,25.40
2019-03-23T14:12:24.922Z,23.07
2019-03-23T14:14:52.248Z,21.53
2019-03-23T14:17:19.541Z,20.07
2019-03-23T14:19:46.867Z,21.13
2019-03-23T14:22:14.170Z,24.30
2019-03-23T14:24:41.490Z,23.87
2019-03-23T14:27:08.810Z,26.40
2019-03-23T14:29:36.106Z,24.40
2019-03-23T14:32:03.409Z,27.07
2019-03-23T14:34:30.731Z,25.60
2019-03-23T14:36:58.056Z,25.20
2019-03-23T14:39:25.360Z,24.20
2019-03-23T14:41:52.665Z,23.53
2019-03-23T14:44:19.976Z,23.63
2019-03-23T14:46:47.275Z,22.57
2019-03-23T14:49:14.578Z,25.80
2019-03-23T14:51:41.885Z,22.17
2019-03-23T14:54:09.184Z,26.83
2019-03-23T14:56:36.488Z,20.77
2019-03-23T14:59:03.806Z,20.40
2019-03-23T15:01:31.106Z,22.67
2019-03-23T15:03:58.406Z,24.17
2019-03-23T15:06:25.726Z,24.97
2019-03-23T15:08:53.029Z,26.73
2019-03-23T15:11:20.346Z,23.07
2019-03-23T15:13:47.694Z,26.23
2019-03-23T15:16:14.954Z,25.40
2019-03-23T15:18:42.260Z,22.93
2019-03-23T15:21:09.598Z,25.33
2019-03-23T15:23:36.889Z,23.00
2019-03-23T15:26:04.195Z,27.70
2019-03-23T15:28:31.521Z,27.37
2019-03-23T15:30:58.813Z,25.80
2019-03-23T15:33:26.124Z,26.60
2019-03-23T15:35:53.450Z,26.70
2019-03-23T15:38:20.747Z,27.60
2019-03-23T15:40:48.051Z,27.80
2019-03-23T15:43:15.373Z,26.77
2019-03-23T15:45:42.692Z,29.23
2019-03-23T15:48:09.994Z,25.67
2019-03-23T15:50:37.316Z,28.97
2019-03-23T15:53:04.636Z,29.47
2019-03-23T15:55:31.929Z,27.40
2019-03-23T15:57:59.258Z,26.80
2019-03-23T16:00:26.548Z,28.27
2019-03-23T16:02:53.850Z,32.93
2019-03-23T16:05:21.157Z,25.23
2019-03-23T16:07:48.498Z,27.30
2019-03-23T16:10:15.785Z,26.67
2019-03-23T16:12:43.083Z,30.60
2019-03-23T16:15:10.789Z,32.60
2019-03-23T16:17:38.052Z,29.27
2019-03-23T16:20:09.130Z,29.97
2019-03-23T16:22:36.461Z,27.00
2019-03-23T16:25:04.827Z,31.63
2019-03-23T16:27:32.121Z,34.33
2019-03-23T16:29:59.437Z,32.00
2019-03-23T16:32:26.760Z,31.50
2019-03-23T16:34:54.053Z,36.77
2019-03-23T16:37:21.346Z,35.30
2019-03-23T16:39:48.670Z,35.70
2019-03-23T16:42:15.969Z,32.43
2019-03-23T16:44:43.271Z,35.93
2019-03-23T16:47:10.579Z,32.80
2019-03-23T16:49:37.879Z,32.60
2019-03-23T16:52:05.200Z,39.67
2019-03-23T16:54:32.502Z,38.00
2019-03-23T16:56:59.798Z,32.93
2019-03-23T16:59:27.119Z,38.27
2019-03-23T17:01:54.410Z,34.00
2019-03-23T17:04:21.739Z,36.27
2019-03-23T17:06:49.048Z,33.23
2019-03-23T17:09:16.356Z,32.20
2019-03-23T17:11:43.655Z,35.45
2019-03-23T17:14:10.958Z,45.00
2019-03-23T17:16:38.291Z,36.58
2019-03-23T17:19:05.581Z,38.90
2019-03-23T17:21:32.926Z,38.10
2019-03-23T17:24:00.217Z,39.78
2019-03-23T17:26:27.523Z,39.45
2019-03-23T17:28:54.843Z,38.35
2019-03-23T17:31:22.156Z,42.38
2019-03-23T17:33:49.455Z,39.92
2019-03-23T17:36:16.750Z,40.00
2019-03-23T17:38:44.069Z,39.83
2019-03-23T17:41:11.367Z,40.43
2019-03-23T17:43:40.706Z,44.63
2019-03-23T17:46:07.642Z,37.45
2019-03-23T17:48:34.943Z,44.77
2019-03-23T17:51:02.327Z,43.10
2019-03-23T17:53:29.618Z,38.42
2019-03-23T17:55:56.926Z,43.70
2019-03-23T17:58:24.246Z,36.10
2019-03-23T18:00:51.546Z,43.95
2019-03-23T18:03:18.840Z,43.58
2019-03-23T18:05:46.174Z,40.30
2019-03-23T18:08:13.533Z,52.85
2019-03-23T18:10:40.850Z,53.83
2019-03-23T18:13:16.147Z,54.23
2019-03-23T18:15:37.102Z,43.83
2019-03-23T18:18:04.401Z,46.30
2019-03-23T18:20:31.712Z,33.88
2019-03-23T18:22:59.015Z,33.10
2019-03-23T18:25:26.341Z,38.98
2019-03-23T18:27:53.634Z,34.05
2019-03-23T18:30:25.345Z,40.95
2019-03-23T18:32:52.664Z,36.63
2019-03-23T18:35:20.039Z,36.85
2019-03-23T18:37:47.369Z,27.35
2019-03-23T18:40:14.736Z,29.57
2019-03-23T18:42:42.055Z,38.67
2019-03-23T18:45:09.346Z,40.25
2019-03-23T18:47:37.537Z,31.85
2019-03-23T18:50:05.426Z,25.88
2019-03-23T18:52:32.744Z,35.75
2019-03-23T18:55:00.033Z,38.40
2019-03-23T18:57:27.395Z,33.75
2019-03-23T18:59:54.685Z,36.45
2019-03-23T19:02:21.978Z,34.50
2019-03-23T19:04:49.783Z,35.52
2019-03-23T19:07:17.094Z,33.75
2019-03-23T19:09:44.384Z,33.88
2019-03-23T19:12:11.698Z,34.58
2019-03-23T19:14:38.990Z,34.30
2019-03-23T19:17:06.302Z,30.75
2019-03-23T19:19:33.598Z,31.20
2019-03-23T19:22:00.914Z,35.68
2019-03-23T19:24:28.216Z,49.05
2019-03-23T19:26:55.500Z,38.45
2019-03-23T19:29:22.858Z,36.83
2019-03-23T19:31:50.195Z,35.95
2019-03-23T19:34:17.501Z,37.80
2019-03-23T19:36:44.788Z,59.33
2019-03-23T19:39:12.102Z,64.95
2019-03-23T19:41:39.393Z,62.13
2019-03-23T19:44:06.723Z,64.97
2019-03-23T19:46:34.023Z,68.92
2019-03-23T19:49:01.352Z,68.80
2019-03-23T19:51:28.653Z,76.50
2019-03-23T19:53:55.955Z,80.75
2019-03-23T19:56:23.270Z,80.47
2019-03-23T19:58:50.570Z,70.78
2019-03-23T20:01:17.911Z,68.42
2019-03-23T20:03:45.211Z,74.37
2019-03-23T20:06:12.506Z,73.50
2019-03-23T20:08:39.832Z,68.10
2019-03-23T20:11:07.118Z,69.10
2019-03-23T20:13:34.437Z,73.87
2019-03-23T20:16:01.731Z,71.35
2019-03-23T20:18:29.027Z,66.05
2019-03-23T20:20:56.382Z,65.90
2019-03-23T20:23:23.701Z,70.80
2019-03-23T20:25:50.994Z,70.28
2019-03-23T20:28:18.369Z,70.50
2019-03-23T20:30:46.573Z,71.02
2019-03-23T20:33:19.348Z,72.22
2019-03-23T20:35:42.873Z,80.25
2019-03-23T20:38:10.179Z,67.12
2019-03-23T20:40:37.473Z,73.90
2019-03-23T20:43:04.785Z,66.67
2019-03-23T20:45:32.073Z,64.75
2019-03-23T20:47:59.380Z,64.17
2019-03-23T20:50:26.773Z,66.35
2019-03-23T20:52:54.250Z,75.12
2019-03-23T20:55:25.043Z,66.35
2019-03-23T20:57:52.730Z,63.75
2019-03-23T21:00:20.030Z,69.45
2019-03-23T21:02:47.345Z,65.72
2019-03-23T21:05:14.638Z,64.42
2019-03-23T21:07:41.965Z,65.85
2019-03-23T21:10:09.263Z,62.58
2019-03-23T21:12:36.556Z,60.25
2019-03-23T21:15:04.939Z,63.28
2019-03-23T21:17:32.237Z,62.15
2019-03-23T21:19:59.542Z,54.27
2019-03-23T21:22:26.857Z,54.40
2019-03-23T21:24:54.161Z,60.40
2019-03-23T21:27:21.463Z,49.88
2019-03-23T21:29:48.767Z,51.83
2019-03-23T21:32:16.093Z,52.80
2019-03-23T21:34:43.388Z,51.35
2019-03-23T21:37:10.697Z,46.20
2019-03-23T21:39:37.992Z,52.45
2019-03-23T21:42:05.362Z,56.23
2019-03-23T21:44:32.661Z,47.30
2019-03-23T21:46:59.992Z,48.52
2019-03-23T21:49:27.282Z,44.58
2019-03-23T21:51:54.583Z,43.70
2019-03-23T21:54:21.902Z,47.17
2019-03-23T21:56:49.198Z,44.93
2019-03-23T21:59:16.497Z,43.35
2019-03-23T22:01:43.824Z,51.33
2019-03-23T22:04:11.118Z,56.20
2019-03-23T22:06:38.414Z,49.75
2019-03-23T22:09:05.902Z,45.23
2019-03-23T22:11:33.198Z,50.30
2019-03-23T22:14:00.481Z,51.18
2019-03-23T22:16:27.807Z,48.13
2019-03-23T22:18:55.097Z,37.30
2019-03-23T22:21:22.393Z,48.92
2019-03-23T22:23:49.701Z,44.03
2019-03-23T22:26:17.025Z,49.58
2019-03-23T22:28:44.305Z,51.15
2019-03-23T22:31:11.634Z,55.92
2019-03-23T22:33:38.925Z,56.63
2019-03-23T22:36:06.221Z,53.45
2019-03-23T22:38:33.533Z,47.58
2019-03-23T22:41:00.825Z,51.92
2019-03-23T22:43:28.155Z,54.48
2019-03-23T22:45:55.450Z,53.78
2019-03-23T22:48:22.774Z,54.58
2019-03-23T22:50:50.061Z,56.42
2019-03-23T22:53:17.383Z,54.03
2019-03-23T22:55:44.678Z,58.52
2019-03-23T22:58:11.982Z,60.83
2019-03-23T23:00:43.179Z,65.55
2019-03-23T23:03:10.465Z,58.05
2019-03-23T23:05:37.762Z,61.73
2019-03-23T23:08:05.097Z,69.32
2019-03-23T23:10:32.395Z,65.32
2019-03-23T23:12:59.707Z,72.25
2019-03-23T23:15:27.001Z,70.50
2019-03-23T23:17:54.318Z,76.28
2019-03-23T23:20:21.610Z,69.27
2019-03-23T23:22:48.911Z,80.30
2019-03-23T23:25:16.237Z,73.85
2019-03-23T23:27:43.531Z,71.72
2019-03-23T23:30:10.832Z,75.30
2019-03-23T23:32:38.154Z,80.00
2019-03-23T23:35:08.740Z,86.70
2019-03-23T23:37:36.025Z,80.67
2019-03-23T23:40:04.417Z,80.67
2019-03-23T23:42:31.705Z,80.70
2019-03-23T23:44:58.987Z,79.90
2019-03-23T23:47:26.322Z,78.00
2019-03-23T23:49:53.619Z,78.80
2019-03-23T23:52:20.909Z,76.53
2019-03-23T23:54:48.229Z,78.40
2019-03-23T23:57:15.517Z,78.85
2019-03-23T23:59:42.841Z,95.28
